Welcome to Des Moines Iowa Weather. I am an independent private personal weather station on the Northwest Side of Des Moines, Iowa. Just East of Windsor Heights and just West of Glendale . This site is also mobile friendly.

There are no active watches, warnings or advisories


Visit our other weather sites:

Historical Data

Weather Station Setup



Weather Underground History page Text

Daily Summary for January 11, 2018 Units:  Both    English   Metric
« Previous Day
Next Day »
Daily Weekly Monthly Yearly Custom
  High: Low: Average:
Temperature: 42.5 °F /  5.8 °C 5.6 °F /  -14.7 °C 19.4 °F /  -7 °C
Dew Point: 41.0 °F /  5 °C 1.0 °F /  -17.2 °C 16.6 °F /  -8.6 °C
Humidity: 94 % 82 % 88 %
Wind Speed: 14.0 mph /  22.5 km/h - 5.2 mph /  8.4 km/h
Wind Gust: 24.0 mph /  38.6 km/h - -
Wind:- - West
Pressure: 30.28 in /  1025.3 hPa 29.59 in /  1001.9 hPa -
Precipitation: 0.07 in /  1.78 mm    
Historical Graphs
 
 
Tabular Data for January 11, 2018
Time Temperature Dew Point Pressure Wind Wind Speed Wind Gust Humidity Rainfall Rate (Hourly)
00:09 42.2 °F /  5.7 °C 41.0 °F /  5 °C 29.59 in /  1001.9 hPa Calm   2.0 mph /  3.2 km/h 94 % 0.00 in /  0 mm
00:24 42.3 °F /  5.7 °C 41.0 °F /  5 °C 29.59 in /  1001.9 hPa Calm   4.0 mph /  6.4 km/h 94 % 0.00 in /  0 mm
00:39 42.4 °F /  5.8 °C 41.0 °F /  5 °C 29.59 in /  1001.9 hPa Calm   2.0 mph /  3.2 km/h 94 % 0.00 in /  0 mm
00:54 42.5 °F /  5.8 °C 41.0 °F /  5 °C 29.59 in /  1001.9 hPa Calm   2.0 mph /  3.2 km/h 94 % 0.00 in /  0 mm
01:24 42.5 °F /  5.8 °C 41.0 °F /  5 °C 29.59 in /  1001.9 hPa Calm   3.0 mph /  4.8 km/h 93 % 0.01 in /  0.25 mm
01:39 42.4 °F /  5.8 °C 41.0 °F /  5 °C 29.60 in /  1002.3 hPa Calm     93 % 0.02 in /  0.51 mm
01:54 42.3 °F /  5.7 °C 41.0 °F /  5 °C 29.59 in /  1001.9 hPa Calm   7.0 mph /  11.3 km/h 93 % 0.04 in /  1.02 mm
02:09 42.2 °F /  5.7 °C 40.0 °F /  4.4 °C 29.61 in /  1002.6 hPa Calm     93 % 0.05 in /  1.27 mm
02:24 41.9 °F /  5.5 °C 40.0 °F /  4.4 °C 29.61 in /  1002.6 hPa Calm   1.0 mph /  1.6 km/h 93 % 0.04 in /  1.02 mm
02:39 41.6 °F /  5.3 °C 40.0 °F /  4.4 °C 29.63 in /  1003.3 hPa Calm     94 % 0.03 in /  0.76 mm
02:54 41.5 °F /  5.3 °C 40.0 °F /  4.4 °C 29.63 in /  1003.3 hPa Calm     94 % 0.01 in /  0.25 mm
03:09 41.7 °F /  5.4 °C 40.0 °F /  4.4 °C 29.63 in /  1003.3 hPa NNW 1.0 mph /  1.6 km/h 5.0 mph /  8 km/h 94 % 0.00 in /  0 mm
03:39 40.8 °F /  4.9 °C 39.0 °F /  3.9 °C 29.64 in /  1003.6 hPa NNW 1.0 mph /  1.6 km/h 10.0 mph /  16.1 km/h 94 % 0.00 in /  0 mm
03:54 40.2 °F /  4.6 °C 39.0 °F /  3.9 °C 29.64 in /  1003.6 hPa NNW 1.0 mph /  1.6 km/h 10.0 mph /  16.1 km/h 94 % 0.00 in /  0 mm
04:09 39.7 °F /  4.3 °C 38.0 °F /  3.3 °C 29.66 in /  1004.3 hPa WNW 2.0 mph /  3.2 km/h 7.0 mph /  11.3 km/h 94 % 0.01 in /  0.25 mm
04:25 39.2 °F /  4 °C 38.0 °F /  3.3 °C 29.66 in /  1004.3 hPa West 7.0 mph /  11.3 km/h 13.0 mph /  20.9 km/h 94 % 0.01 in /  0.25 mm
04:40 35.0 °F /  1.7 °C 33.0 °F /  0.6 °C 29.68 in /  1005 hPa NW 6.0 mph /  9.7 km/h 17.0 mph /  27.4 km/h 92 % 0.02 in /  0.51 mm
04:55 32.9 °F /  0.5 °C 31.0 °F /  -0.6 °C 29.69 in /  1005.3 hPa NNW 6.0 mph /  9.7 km/h 16.0 mph /  25.7 km/h 93 % 0.02 in /  0.51 mm
05:10 30.6 °F /  -0.8 °C 29.0 °F /  -1.7 °C 29.70 in /  1005.6 hPa WNW 2.0 mph /  3.2 km/h 16.0 mph /  25.7 km/h 92 % 0.01 in /  0.25 mm
05:25 29.3 °F /  -1.5 °C 28.0 °F /  -2.2 °C 29.73 in /  1006.7 hPa North 4.0 mph /  6.4 km/h 17.0 mph /  27.4 km/h 93 % 0.01 in /  0.25 mm
05:40 27.8 °F /  -2.3 °C 26.0 °F /  -3.3 °C 29.74 in /  1007 hPa North 10.0 mph /  16.1 km/h 17.0 mph /  27.4 km/h 92 % 0.00 in /  0 mm
05:55 26.1 °F /  -3.3 °C 24.0 °F /  -4.4 °C 29.75 in /  1007.3 hPa NNW 4.0 mph /  6.4 km/h 15.0 mph /  24.1 km/h 92 % 0.00 in /  0 mm
06:10 25.3 °F /  -3.7 °C 23.0 °F /  -5 °C 29.76 in /  1007.7 hPa WNW 8.0 mph /  12.9 km/h 17.0 mph /  27.4 km/h 92 % 0.00 in /  0 mm
06:25 24.3 °F /  -4.3 °C 22.0 °F /  -5.6 °C 29.77 in /  1008 hPa NNW 8.0 mph /  12.9 km/h 14.0 mph /  22.5 km/h 91 % 0.00 in /  0 mm
06:40 22.8 °F /  -5.1 °C 20.0 °F /  -6.7 °C 29.79 in /  1008.7 hPa NW 6.0 mph /  9.7 km/h 16.0 mph /  25.7 km/h 90 % 0.00 in /  0 mm
06:55 22.0 °F /  -5.6 °C 20.0 °F /  -6.7 °C 29.80 in /  1009 hPa WNW 3.0 mph /  4.8 km/h 15.0 mph /  24.1 km/h 90 % 0.00 in /  0 mm
07:10 21.5 °F /  -5.8 °C 19.0 °F /  -7.2 °C 29.81 in /  1009.4 hPa NW 3.0 mph /  4.8 km/h 15.0 mph /  24.1 km/h 90 % 0.00 in /  0 mm
07:25 21.1 °F /  -6.1 °C 19.0 °F /  -7.2 °C 29.81 in /  1009.4 hPa WNW 5.0 mph /  8 km/h 16.0 mph /  25.7 km/h 91 % 0.00 in /  0 mm
07:40 20.6 °F /  -6.3 °C 18.0 °F /  -7.8 °C 29.82 in /  1009.7 hPa NW 4.0 mph /  6.4 km/h 16.0 mph /  25.7 km/h 91 % 0.00 in /  0 mm
07:55 20.4 °F /  -6.4 °C 19.0 °F /  -7.2 °C 29.82 in /  1009.7 hPa NE 5.0 mph /  8 km/h 12.0 mph /  19.3 km/h 92 % 0.00 in /  0 mm
08:11 19.8 °F /  -6.8 °C 18.0 °F /  -7.8 °C 29.82 in /  1009.7 hPa NNW 9.0 mph /  14.5 km/h 15.0 mph /  24.1 km/h 92 % 0.00 in /  0 mm
08:26 19.6 °F /  -6.9 °C 18.0 °F /  -7.8 °C 29.83 in /  1010 hPa NNW 5.0 mph /  8 km/h 10.0 mph /  16.1 km/h 92 % 0.00 in /  0 mm
08:41 18.9 °F /  -7.3 °C 17.0 °F /  -8.3 °C 29.86 in /  1011.1 hPa NW 2.0 mph /  3.2 km/h 17.0 mph /  27.4 km/h 92 % 0.00 in /  0 mm
08:56 18.0 °F /  -7.8 °C 16.0 °F /  -8.9 °C 29.89 in /  1012.1 hPa WNW 7.0 mph /  11.3 km/h 17.0 mph /  27.4 km/h 92 % 0.00 in /  0 mm
09:11 17.5 °F /  -8.1 °C 16.0 °F /  -8.9 °C 29.88 in /  1011.7 hPa NW 6.0 mph /  9.7 km/h 15.0 mph /  24.1 km/h 92 % 0.00 in /  0 mm
09:26 16.8 °F /  -8.4 °C 15.0 °F /  -9.4 °C 29.91 in /  1012.8 hPa NW 5.0 mph /  8 km/h 14.0 mph /  22.5 km/h 91 % 0.00 in /  0 mm
09:41 16.3 °F /  -8.7 °C 14.0 °F /  -10 °C 29.93 in /  1013.4 hPa WNW 3.0 mph /  4.8 km/h 15.0 mph /  24.1 km/h 91 % 0.00 in /  0 mm
09:56 16.0 °F /  -8.9 °C 14.0 °F /  -10 °C 29.94 in /  1013.8 hPa WNW 4.0 mph /  6.4 km/h 20.0 mph /  32.2 km/h 91 % 0.00 in /  0 mm
10:11 15.5 °F /  -9.2 °C 13.0 °F /  -10.6 °C 29.95 in /  1014.1 hPa WNW 4.0 mph /  6.4 km/h 13.0 mph /  20.9 km/h 90 % 0.00 in /  0 mm
10:26 15.0 °F /  -9.4 °C 13.0 °F /  -10.6 °C 29.94 in /  1013.8 hPa NW 13.0 mph /  20.9 km/h 19.0 mph /  30.6 km/h 90 % 0.00 in /  0 mm
10:41 14.7 °F /  -9.6 °C 12.0 °F /  -11.1 °C 29.95 in /  1014.1 hPa NW 4.0 mph /  6.4 km/h 15.0 mph /  24.1 km/h 90 % 0.00 in /  0 mm
10:56 14.2 °F /  -9.9 °C 12.0 °F /  -11.1 °C 29.94 in /  1013.8 hPa NW 4.0 mph /  6.4 km/h 21.0 mph /  33.8 km/h 90 % 0.00 in /  0 mm
11:11 13.7 °F /  -10.2 °C 11.0 °F /  -11.7 °C 29.95 in /  1014.1 hPa NE 5.0 mph /  8 km/h 16.0 mph /  25.7 km/h 90 % 0.00 in /  0 mm
11:26 14.1 °F /  -9.9 °C 12.0 °F /  -11.1 °C 29.96 in /  1014.4 hPa WNW 10.0 mph /  16.1 km/h 16.0 mph /  25.7 km/h 90 % 0.00 in /  0 mm
11:41 13.7 °F /  -10.2 °C 11.0 °F /  -11.7 °C 29.96 in /  1014.4 hPa NW 4.0 mph /  6.4 km/h 20.0 mph /  32.2 km/h 89 % 0.00 in /  0 mm
11:56 13.8 °F /  -10.1 °C 11.0 °F /  -11.7 °C 29.97 in /  1014.8 hPa NW 13.0 mph /  20.9 km/h 16.0 mph /  25.7 km/h 88 % 0.00 in /  0 mm
12:11 13.7 °F /  -10.2 °C 11.0 °F /  -11.7 °C 29.99 in /  1015.5 hPa WNW 2.0 mph /  3.2 km/h 19.0 mph /  30.6 km/h 87 % 0.00 in /  0 mm
12:26 13.0 °F /  -10.6 °C 10.0 °F /  -12.2 °C 29.97 in /  1014.8 hPa West 10.0 mph /  16.1 km/h 21.0 mph /  33.8 km/h 86 % 0.00 in /  0 mm
12:42 12.6 °F /  -10.8 °C 9.0 °F /  -12.8 °C 29.98 in /  1015.1 hPa ESE 9.0 mph /  14.5 km/h 22.0 mph /  35.4 km/h 86 % 0.00 in /  0 mm
12:57 12.5 °F /  -10.8 °C 9.0 °F /  -12.8 °C 29.98 in /  1015.1 hPa WNW 3.0 mph /  4.8 km/h 20.0 mph /  32.2 km/h 86 % 0.00 in /  0 mm
13:12 12.6 °F /  -10.8 °C 9.0 °F /  -12.8 °C 29.98 in /  1015.1 hPa WNW 5.0 mph /  8 km/h 20.0 mph /  32.2 km/h 85 % 0.00 in /  0 mm
13:27 11.7 °F /  -11.3 °C 8.0 °F /  -13.3 °C 29.99 in /  1015.5 hPa WNW 14.0 mph /  22.5 km/h 19.0 mph /  30.6 km/h 85 % 0.00 in /  0 mm
13:42 11.2 °F /  -11.6 °C 8.0 °F /  -13.3 °C 30.00 in /  1015.8 hPa WNW 5.0 mph /  8 km/h 14.0 mph /  22.5 km/h 86 % 0.00 in /  0 mm
13:57 10.8 °F /  -11.8 °C 7.0 °F /  -13.9 °C 30.00 in /  1015.8 hPa NW 4.0 mph /  6.4 km/h 16.0 mph /  25.7 km/h 85 % 0.00 in /  0 mm
14:12 10.9 °F /  -11.7 °C 8.0 °F /  -13.3 °C 30.01 in /  1016.1 hPa NW 11.0 mph /  17.7 km/h 15.0 mph /  24.1 km/h 86 % 0.00 in /  0 mm
14:27 10.8 °F /  -11.8 °C 7.0 °F /  -13.9 °C 30.01 in /  1016.1 hPa NW 13.0 mph /  20.9 km/h 24.0 mph /  38.6 km/h 85 % 0.00 in /  0 mm
14:42 11.0 °F /  -11.7 °C 7.0 °F /  -13.9 °C 30.02 in /  1016.5 hPa WNW 4.0 mph /  6.4 km/h 16.0 mph /  25.7 km/h 85 % 0.00 in /  0 mm
14:57 11.4 °F /  -11.4 °C 8.0 °F /  -13.3 °C 30.03 in /  1016.8 hPa NW 3.0 mph /  4.8 km/h 17.0 mph /  27.4 km/h 85 % 0.00 in /  0 mm
15:12 11.3 °F /  -11.5 °C 7.0 °F /  -13.9 °C 30.05 in /  1017.5 hPa NW 4.0 mph /  6.4 km/h 22.0 mph /  35.4 km/h 84 % 0.00 in /  0 mm
15:27 10.9 °F /  -11.7 °C 7.0 °F /  -13.9 °C 30.07 in /  1018.2 hPa West 6.0 mph /  9.7 km/h 18.0 mph /  29 km/h 85 % 0.00 in /  0 mm
15:42 11.4 °F /  -11.4 °C 7.0 °F /  -13.9 °C 30.08 in /  1018.5 hPa NW 8.0 mph /  12.9 km/h 15.0 mph /  24.1 km/h 83 % 0.00 in /  0 mm
15:57 11.0 °F /  -11.7 °C 7.0 °F /  -13.9 °C 30.08 in /  1018.5 hPa North 2.0 mph /  3.2 km/h 14.0 mph /  22.5 km/h 84 % 0.00 in /  0 mm
16:12 10.6 °F /  -11.9 °C 6.0 °F /  -14.4 °C 30.09 in /  1018.8 hPa NNE 6.0 mph /  9.7 km/h 18.0 mph /  29 km/h 83 % 0.00 in /  0 mm
16:28 10.7 °F /  -11.8 °C 7.0 °F /  -13.9 °C 30.11 in /  1019.5 hPa NNW 6.0 mph /  9.7 km/h 15.0 mph /  24.1 km/h 85 % 0.00 in /  0 mm
16:43 10.7 °F /  -11.8 °C 7.0 °F /  -13.9 °C 30.12 in /  1019.9 hPa North 2.0 mph /  3.2 km/h 13.0 mph /  20.9 km/h 85 % 0.00 in /  0 mm
16:58 10.7 °F /  -11.8 °C 7.0 °F /  -13.9 °C 30.13 in /  1020.2 hPa NW 10.0 mph /  16.1 km/h 12.0 mph /  19.3 km/h 85 % 0.00 in /  0 mm
17:13 10.5 °F /  -11.9 °C 7.0 °F /  -13.9 °C 30.13 in /  1020.2 hPa NW 10.0 mph /  16.1 km/h 10.0 mph /  16.1 km/h 86 % 0.00 in /  0 mm
17:28 10.3 °F /  -12.1 °C 7.0 °F /  -13.9 °C 30.14 in /  1020.5 hPa North 5.0 mph /  8 km/h 16.0 mph /  25.7 km/h 86 % 0.00 in /  0 mm
17:43 10.3 °F /  -12.1 °C 7.0 °F /  -13.9 °C 30.15 in /  1020.9 hPa NW 9.0 mph /  14.5 km/h 17.0 mph /  27.4 km/h 86 % 0.00 in /  0 mm
17:58 10.4 °F /  -12 °C 7.0 °F /  -13.9 °C 30.16 in /  1021.2 hPa NW 7.0 mph /  11.3 km/h 10.0 mph /  16.1 km/h 85 % 0.00 in /  0 mm
18:13 10.4 °F /  -12 °C 7.0 °F /  -13.9 °C 30.16 in /  1021.2 hPa NW 9.0 mph /  14.5 km/h 13.0 mph /  20.9 km/h 85 % 0.00 in /  0 mm
18:28 10.4 °F /  -12 °C 7.0 °F /  -13.9 °C 30.17 in /  1021.6 hPa NW 13.0 mph /  20.9 km/h 16.0 mph /  25.7 km/h 85 % 0.00 in /  0 mm
18:43 10.7 °F /  -11.8 °C 7.0 °F /  -13.9 °C 30.17 in /  1021.6 hPa WNW 4.0 mph /  6.4 km/h 16.0 mph /  25.7 km/h 85 % 0.00 in /  0 mm
19:28 11.0 °F /  -11.7 °C 7.0 °F /  -13.9 °C 30.20 in /  1022.6 hPa North 3.0 mph /  4.8 km/h 18.0 mph /  29 km/h 84 % 0.00 in /  0 mm
19:43 10.9 °F /  -11.7 °C 7.0 °F /  -13.9 °C 30.20 in /  1022.6 hPa NW 5.0 mph /  8 km/h 16.0 mph /  25.7 km/h 84 % 0.00 in /  0 mm
19:59 10.9 °F /  -11.7 °C 7.0 °F /  -13.9 °C 30.20 in /  1022.6 hPa NW 8.0 mph /  12.9 km/h 13.0 mph /  20.9 km/h 85 % 0.00 in /  0 mm
20:14 10.8 °F /  -11.8 °C 7.0 °F /  -13.9 °C 30.21 in /  1022.9 hPa NW 3.0 mph /  4.8 km/h 17.0 mph /  27.4 km/h 85 % 0.00 in /  0 mm
20:29 10.6 °F /  -11.9 °C 7.0 °F /  -13.9 °C 30.22 in /  1023.2 hPa North 12.0 mph /  19.3 km/h 17.0 mph /  27.4 km/h 86 % 0.00 in /  0 mm
20:44 10.5 °F /  -11.9 °C 7.0 °F /  -13.9 °C 30.23 in /  1023.6 hPa NW 3.0 mph /  4.8 km/h 15.0 mph /  24.1 km/h 84 % 0.00 in /  0 mm
20:59 9.6 °F /  -12.4 °C 6.0 °F /  -14.4 °C 30.24 in /  1023.9 hPa WNW 11.0 mph /  17.7 km/h 17.0 mph /  27.4 km/h 84 % 0.00 in /  0 mm
21:14 8.7 °F /  -12.9 °C 5.0 °F /  -15 °C 30.25 in /  1024.3 hPa NW 12.0 mph /  19.3 km/h 13.0 mph /  20.9 km/h 84 % 0.00 in /  0 mm
21:29 8.1 °F /  -13.3 °C 4.0 °F /  -15.6 °C 30.25 in /  1024.3 hPa NW 6.0 mph /  9.7 km/h 20.0 mph /  32.2 km/h 83 % 0.00 in /  0 mm
21:44 7.6 °F /  -13.6 °C 4.0 °F /  -15.6 °C 30.25 in /  1024.3 hPa WNW 8.0 mph /  12.9 km/h 15.0 mph /  24.1 km/h 83 % 0.00 in /  0 mm
21:59 7.3 °F /  -13.7 °C 3.0 °F /  -16.1 °C 30.26 in /  1024.6 hPa WNW 2.0 mph /  3.2 km/h 16.0 mph /  25.7 km/h 83 % 0.00 in /  0 mm
22:14 7.1 °F /  -13.8 °C 3.0 °F /  -16.1 °C 30.26 in /  1024.6 hPa North 1.0 mph /  1.6 km/h 12.0 mph /  19.3 km/h 83 % 0.00 in /  0 mm
22:29 6.8 °F /  -14 °C 3.0 °F /  -16.1 °C 30.27 in /  1024.9 hPa North 5.0 mph /  8 km/h 11.0 mph /  17.7 km/h 84 % 0.00 in /  0 mm
22:59 6.2 °F /  -14.3 °C 2.0 °F /  -16.7 °C 30.27 in /  1024.9 hPa North 3.0 mph /  4.8 km/h 11.0 mph /  17.7 km/h 84 % 0.00 in /  0 mm
23:15 6.0 °F /  -14.4 °C 2.0 °F /  -16.7 °C 30.27 in /  1024.9 hPa North 8.0 mph /  12.9 km/h 11.0 mph /  17.7 km/h 83 % 0.00 in /  0 mm
23:30 5.6 °F /  -14.7 °C 1.0 °F /  -17.2 °C 30.28 in /  1025.3 hPa North 4.0 mph /  6.4 km/h 12.0 mph /  19.3 km/h 82 % 0.00 in /  0 mm
Des Moines Weather and Climate
Compliments of Weather Underground - 3 mb

Script developed by  Jim McMurry - jmcmurry@mwt.net Adapted for the template by  Wim van der Kuil - Leuven-Template.eu

You find our weather info also at:

Weather Underground

Equipment we use:

Weather-station
Davis VP2 Plus

Weather-program
Davis Weatherlink.Com

Weather-server
iMac (Retina 4K, 21.5-inch, Late 2015)

Provider
Hostmonster.com

Davis VP2 Plus

Davis Weatherlink.Com

iMac (Retina 4K, 21.5-inch, Late 2015)

Hostmonster.com